sensor_id;sensor_type;location;lat;lon;timestamp;P1;durP1;ratioP1;P2;durP2;ratioP2
28547;SDS011;15750;49.600;8.746;2022-12-18T00:02:16;53.33;;;33.83;;
28547;SDS011;15750;49.600;8.746;2022-12-18T00:05:03;55.53;;;34.63;;
28547;SDS011;15750;49.600;8.746;2022-12-18T00:07:53;54.57;;;36.77;;
28547;SDS011;15750;49.600;8.746;2022-12-18T00:10:40;49.33;;;32.67;;
28547;SDS011;15750;49.600;8.746;2022-12-18T00:13:27;45.83;;;31.03;;
28547;SDS011;15750;49.600;8.746;2022-12-18T00:16:15;53.97;;;33.30;;
28547;SDS011;15750;49.600;8.746;2022-12-18T00:19:05;49.80;;;31.50;;
28547;SDS011;15750;49.600;8.746;2022-12-18T00:21:53;48.97;;;31.53;;
28547;SDS011;15750;49.600;8.746;2022-12-18T00:24:42;50.70;;;33.60;;
28547;SDS011;15750;49.600;8.746;2022-12-18T00:27:29;52.23;;;35.33;;
28547;SDS011;15750;49.600;8.746;2022-12-18T00:30:16;60.53;;;34.37;;
28547;SDS011;15750;49.600;8.746;2022-12-18T00:33:03;57.60;;;34.63;;
28547;SDS011;15750;49.600;8.746;2022-12-18T00:35:50;52.70;;;32.30;;
28547;SDS011;15750;49.600;8.746;2022-12-18T00:38:38;50.40;;;31.87;;
28547;SDS011;15750;49.600;8.746;2022-12-18T00:41:27;52.87;;;33.70;;
28547;SDS011;15750;49.600;8.746;2022-12-18T00:44:32;49.33;;;32.20;;
28547;SDS011;15750;49.600;8.746;2022-12-18T00:47:20;52.97;;;32.27;;
28547;SDS011;15750;49.600;8.746;2022-12-18T00:50:08;54.13;;;32.53;;
28547;SDS011;15750;49.600;8.746;2022-12-18T00:52:55;59.53;;;34.77;;
28547;SDS011;15750;49.600;8.746;2022-12-18T00:55:43;54.37;;;35.23;;
28547;SDS011;15750;49.600;8.746;2022-12-18T00:58:40;48.93;;;30.57;;
28547;SDS011;15750;49.600;8.746;2022-12-18T01:01:28;45.77;;;30.83;;
28547;SDS011;15750;49.600;8.746;2022-12-18T01:04:15;51.80;;;32.53;;
28547;SDS011;15750;49.600;8.746;2022-12-18T01:07:03;48.60;;;30.93;;
28547;SDS011;15750;49.600;8.746;2022-12-18T01:09:52;46.93;;;31.63;;
28547;SDS011;15750;49.600;8.746;2022-12-18T01:12:39;46.63;;;31.13;;
28547;SDS011;15750;49.600;8.746;2022-12-18T01:15:29;50.10;;;33.30;;
28547;SDS011;15750;49.600;8.746;2022-12-18T01:18:17;55.47;;;32.23;;
28547;SDS011;15750;49.600;8.746;2022-12-18T01:21:05;45.87;;;28.97;;
28547;SDS011;15750;49.600;8.746;2022-12-18T01:23:55;52.30;;;31.57;;
28547;SDS011;15750;49.600;8.746;2022-12-18T01:26:43;53.23;;;34.53;;
28547;SDS011;15750;49.600;8.746;2022-12-18T01:29:31;45.93;;;30.07;;
28547;SDS011;15750;49.600;8.746;2022-12-18T01:32:21;47.67;;;31.37;;
28547;SDS011;15750;49.600;8.746;2022-12-18T01:35:08;44.40;;;30.13;;
28547;SDS011;15750;49.600;8.746;2022-12-18T01:37:55;48.60;;;32.33;;
28547;SDS011;15750;49.600;8.746;2022-12-18T01:40:44;50.47;;;34.87;;
28547;SDS011;15750;49.600;8.746;2022-12-18T01:43:48;48.90;;;31.73;;
28547;SDS011;15750;49.600;8.746;2022-12-18T01:46:38;48.13;;;32.53;;
28547;SDS011;15750;49.600;8.746;2022-12-18T01:49:27;49.80;;;31.40;;
28547;SDS011;15750;49.600;8.746;2022-12-18T01:52:14;51.93;;;32.07;;
28547;SDS011;15750;49.600;8.746;2022-12-18T01:55:04;42.07;;;28.30;;
28547;SDS011;15750;49.600;8.746;2022-12-18T01:57:54;41.70;;;29.07;;
28547;SDS011;15750;49.600;8.746;2022-12-18T02:00:45;44.07;;;28.50;;
28547;SDS011;15750;49.600;8.746;2022-12-18T02:03:32;46.93;;;29.93;;
28547;SDS011;15750;49.600;8.746;2022-12-18T02:06:23;46.43;;;29.53;;
28547;SDS011;15750;49.600;8.746;2022-12-18T02:09:18;49.83;;;31.23;;
28547;SDS011;15750;49.600;8.746;2022-12-18T02:12:13;50.77;;;31.23;;
28547;SDS011;15750;49.600;8.746;2022-12-18T02:15:07;41.80;;;27.77;;
28547;SDS011;15750;49.600;8.746;2022-12-18T02:18:02;45.47;;;28.77;;
28547;SDS011;15750;49.600;8.746;2022-12-18T02:20:55;43.20;;;28.30;;
28547;SDS011;15750;49.600;8.746;2022-12-18T02:23:56;48.13;;;31.50;;
28547;SDS011;15750;49.600;8.746;2022-12-18T02:27:04;47.13;;;28.80;;
28547;SDS011;15750;49.600;8.746;2022-12-18T02:29:55;43.40;;;28.50;;
28547;SDS011;15750;49.600;8.746;2022-12-18T02:32:47;41.73;;;26.77;;
28547;SDS011;15750;49.600;8.746;2022-12-18T02:35:37;42.40;;;27.43;;
28547;SDS011;15750;49.600;8.746;2022-12-18T02:38:27;42.80;;;27.60;;
28547;SDS011;15750;49.600;8.746;2022-12-18T02:41:23;39.60;;;25.70;;
28547;SDS011;15750;49.600;8.746;2022-12-18T02:44:12;39.00;;;25.77;;
28547;SDS011;15750;49.600;8.746;2022-12-18T02:47:00;38.07;;;25.57;;
28547;SDS011;15750;49.600;8.746;2022-12-18T02:49:49;37.07;;;25.07;;
28547;SDS011;15750;49.600;8.746;2022-12-18T02:52:52;42.47;;;26.13;;
28547;SDS011;15750;49.600;8.746;2022-12-18T02:55:55;45.60;;;27.47;;
28547;SDS011;15750;49.600;8.746;2022-12-18T02:58:52;43.30;;;28.13;;
28547;SDS011;15750;49.600;8.746;2022-12-18T03:02:11;45.63;;;30.13;;
28547;SDS011;15750;49.600;8.746;2022-12-18T03:05:11;40.27;;;29.03;;
28547;SDS011;15750;49.600;8.746;2022-12-18T03:08:05;50.43;;;30.70;;
28547;SDS011;15750;49.600;8.746;2022-12-18T03:10:57;42.87;;;29.03;;
28547;SDS011;15750;49.600;8.746;2022-12-18T03:13:51;37.57;;;25.37;;
28547;SDS011;15750;49.600;8.746;2022-12-18T03:16:43;42.30;;;27.17;;
28547;SDS011;15750;49.600;8.746;2022-12-18T03:19:34;37.23;;;25.83;;
28547;SDS011;15750;49.600;8.746;2022-12-18T03:22:24;41.77;;;25.83;;
28547;SDS011;15750;49.600;8.746;2022-12-18T03:25:16;33.47;;;23.60;;
28547;SDS011;15750;49.600;8.746;2022-12-18T03:28:05;34.47;;;23.80;;
28547;SDS011;15750;49.600;8.746;2022-12-18T03:30:57;37.17;;;24.43;;
28547;SDS011;15750;49.600;8.746;2022-12-18T03:33:51;36.07;;;23.27;;
28547;SDS011;15750;49.600;8.746;2022-12-18T03:36:47;40.97;;;27.73;;
28547;SDS011;15750;49.600;8.746;2022-12-18T03:39:34;41.90;;;25.53;;
28547;SDS011;15750;49.600;8.746;2022-12-18T03:42:25;33.33;;;22.87;;
28547;SDS011;15750;49.600;8.746;2022-12-18T03:45:26;35.67;;;24.60;;
28547;SDS011;15750;49.600;8.746;2022-12-18T03:48:20;36.33;;;23.93;;
28547;SDS011;15750;49.600;8.746;2022-12-18T03:51:22;34.67;;;22.97;;
28547;SDS011;15750;49.600;8.746;2022-12-18T03:54:14;36.77;;;25.03;;
28547;SDS011;15750;49.600;8.746;2022-12-18T03:57:11;33.67;;;24.00;;
28547;SDS011;15750;49.600;8.746;2022-12-18T04:00:04;37.57;;;26.50;;
28547;SDS011;15750;49.600;8.746;2022-12-18T04:02:59;40.43;;;25.83;;
28547;SDS011;15750;49.600;8.746;2022-12-18T04:05:54;43.30;;;27.80;;
28547;SDS011;15750;49.600;8.746;2022-12-18T04:08:44;41.33;;;27.87;;
28547;SDS011;15750;49.600;8.746;2022-12-18T04:11:39;39.73;;;26.37;;
28547;SDS011;15750;49.600;8.746;2022-12-18T04:14:27;38.47;;;24.17;;
28547;SDS011;15750;49.600;8.746;2022-12-18T04:17:14;35.20;;;23.20;;
28547;SDS011;15750;49.600;8.746;2022-12-18T04:20:02;32.83;;;23.00;;
28547;SDS011;15750;49.600;8.746;2022-12-18T04:22:53;32.07;;;21.80;;
28547;SDS011;15750;49.600;8.746;2022-12-18T04:25:40;34.60;;;22.17;;
28547;SDS011;15750;49.600;8.746;2022-12-18T04:28:35;43.53;;;23.00;;
28547;SDS011;15750;49.600;8.746;2022-12-18T04:31:22;34.50;;;22.63;;
28547;SDS011;15750;49.600;8.746;2022-12-18T04:34:10;33.97;;;21.87;;
28547;SDS011;15750;49.600;8.746;2022-12-18T04:37:05;37.47;;;24.80;;
28547;SDS011;15750;49.600;8.746;2022-12-18T04:39:52;35.40;;;23.83;;
28547;SDS011;15750;49.600;8.746;2022-12-18T04:42:51;38.10;;;24.53;;
28547;SDS011;15750;49.600;8.746;2022-12-18T04:45:39;37.40;;;25.03;;
28547;SDS011;15750;49.600;8.746;2022-12-18T04:48:27;34.90;;;23.23;;
28547;SDS011;15750;49.600;8.746;2022-12-18T04:51:14;38.57;;;25.40;;
28547;SDS011;15750;49.600;8.746;2022-12-18T04:54:08;33.67;;;23.23;;
28547;SDS011;15750;49.600;8.746;2022-12-18T04:56:55;39.07;;;24.80;;
28547;SDS011;15750;49.600;8.746;2022-12-18T04:59:42;34.33;;;23.57;;
28547;SDS011;15750;49.600;8.746;2022-12-18T05:02:31;35.13;;;24.27;;
28547;SDS011;15750;49.600;8.746;2022-12-18T05:05:19;34.73;;;21.90;;
28547;SDS011;15750;49.600;8.746;2022-12-18T05:08:06;37.03;;;23.50;;
28547;SDS011;15750;49.600;8.746;2022-12-18T05:10:57;34.47;;;22.07;;
28547;SDS011;15750;49.600;8.746;2022-12-18T05:13:46;32.80;;;21.30;;
28547;SDS011;15750;49.600;8.746;2022-12-18T05:16:33;36.17;;;24.23;;
28547;SDS011;15750;49.600;8.746;2022-12-18T05:19:21;32.97;;;23.70;;
28547;SDS011;15750;49.600;8.746;2022-12-18T05:22:09;37.80;;;22.47;;
28547;SDS011;15750;49.600;8.746;2022-12-18T05:24:56;29.57;;;20.57;;
28547;SDS011;15750;49.600;8.746;2022-12-18T05:27:44;33.57;;;21.93;;
28547;SDS011;15750;49.600;8.746;2022-12-18T05:30:32;31.97;;;21.90;;
28547;SDS011;15750;49.600;8.746;2022-12-18T05:33:20;31.67;;;21.90;;
28547;SDS011;15750;49.600;8.746;2022-12-18T05:36:11;33.27;;;22.97;;
28547;SDS011;15750;49.600;8.746;2022-12-18T05:38:58;34.83;;;23.27;;
28547;SDS011;15750;49.600;8.746;2022-12-18T05:41:46;36.30;;;25.00;;
28547;SDS011;15750;49.600;8.746;2022-12-18T05:44:33;35.10;;;22.40;;
28547;SDS011;15750;49.600;8.746;2022-12-18T05:47:21;36.40;;;24.40;;
28547;SDS011;15750;49.600;8.746;2022-12-18T05:50:08;35.63;;;24.23;;
28547;SDS011;15750;49.600;8.746;2022-12-18T05:52:57;36.30;;;23.53;;
28547;SDS011;15750;49.600;8.746;2022-12-18T05:55:44;34.47;;;23.13;;
28547;SDS011;15750;49.600;8.746;2022-12-18T05:58:32;36.70;;;25.83;;
28547;SDS011;15750;49.600;8.746;2022-12-18T06:01:21;39.83;;;24.27;;
28547;SDS011;15750;49.600;8.746;2022-12-18T06:04:12;34.20;;;23.27;;
28547;SDS011;15750;49.600;8.746;2022-12-18T06:06:59;48.97;;;28.37;;
28547;SDS011;15750;49.600;8.746;2022-12-18T06:09:53;38.13;;;26.17;;
28547;SDS011;15750;49.600;8.746;2022-12-18T06:12:40;47.87;;;31.63;;
28547;SDS011;15750;49.600;8.746;2022-12-18T06:15:28;47.93;;;31.70;;
28547;SDS011;15750;49.600;8.746;2022-12-18T06:18:15;38.73;;;25.43;;
28547;SDS011;15750;49.600;8.746;2022-12-18T06:21:02;31.97;;;21.70;;
28547;SDS011;15750;49.600;8.746;2022-12-18T06:23:49;35.03;;;24.33;;
28547;SDS011;15750;49.600;8.746;2022-12-18T06:26:38;38.13;;;23.27;;
28547;SDS011;15750;49.600;8.746;2022-12-18T06:29:26;35.27;;;23.90;;
28547;SDS011;15750;49.600;8.746;2022-12-18T06:32:13;36.43;;;24.07;;
28547;SDS011;15750;49.600;8.746;2022-12-18T06:35:00;40.97;;;23.93;;
28547;SDS011;15750;49.600;8.746;2022-12-18T06:37:49;35.53;;;23.40;;
28547;SDS011;15750;49.600;8.746;2022-12-18T06:40:36;33.93;;;22.47;;
28547;SDS011;15750;49.600;8.746;2022-12-18T06:43:26;32.10;;;21.30;;
28547;SDS011;15750;49.600;8.746;2022-12-18T06:46:13;33.67;;;22.40;;
28547;SDS011;15750;49.600;8.746;2022-12-18T06:49:00;34.67;;;22.30;;
28547;SDS011;15750;49.600;8.746;2022-12-18T06:51:48;32.27;;;23.17;;
28547;SDS011;15750;49.600;8.746;2022-12-18T06:54:35;34.70;;;22.33;;
28547;SDS011;15750;49.600;8.746;2022-12-18T06:57:22;34.03;;;22.97;;
28547;SDS011;15750;49.600;8.746;2022-12-18T07:00:14;32.10;;;21.27;;
28547;SDS011;15750;49.600;8.746;2022-12-18T07:03:01;30.83;;;20.20;;
28547;SDS011;15750;49.600;8.746;2022-12-18T07:05:30;32.53;;;23.13;;
28547;SDS011;15750;49.600;8.746;2022-12-18T07:07:59;31.00;;;21.67;;
28547;SDS011;15750;49.600;8.746;2022-12-18T07:10:28;35.37;;;22.43;;
28547;SDS011;15750;49.600;8.746;2022-12-18T07:12:56;34.13;;;23.67;;
28547;SDS011;15750;49.600;8.746;2022-12-18T07:15:26;34.13;;;24.60;;
28547;SDS011;15750;49.600;8.746;2022-12-18T07:17:55;35.30;;;22.83;;
28547;SDS011;15750;49.600;8.746;2022-12-18T07:20:24;32.37;;;22.20;;
28547;SDS011;15750;49.600;8.746;2022-12-18T07:22:52;40.17;;;26.90;;
28547;SDS011;15750;49.600;8.746;2022-12-18T07:25:22;34.73;;;22.47;;
28547;SDS011;15750;49.600;8.746;2022-12-18T07:27:50;36.37;;;23.30;;
28547;SDS011;15750;49.600;8.746;2022-12-18T07:30:19;36.50;;;22.30;;
28547;SDS011;15750;49.600;8.746;2022-12-18T07:32:49;32.47;;;22.53;;
28547;SDS011;15750;49.600;8.746;2022-12-18T07:35:17;36.03;;;21.97;;
28547;SDS011;15750;49.600;8.746;2022-12-18T07:37:50;39.00;;;24.30;;
28547;SDS011;15750;49.600;8.746;2022-12-18T07:40:19;35.10;;;23.17;;
28547;SDS011;15750;49.600;8.746;2022-12-18T07:42:48;36.33;;;24.27;;
28547;SDS011;15750;49.600;8.746;2022-12-18T07:45:16;39.20;;;24.80;;
28547;SDS011;15750;49.600;8.746;2022-12-18T07:47:45;28.93;;;21.17;;
28547;SDS011;15750;49.600;8.746;2022-12-18T07:50:15;39.30;;;24.07;;
28547;SDS011;15750;49.600;8.746;2022-12-18T07:52:44;37.00;;;24.83;;
28547;SDS011;15750;49.600;8.746;2022-12-18T07:55:13;37.23;;;22.63;;
28547;SDS011;15750;49.600;8.746;2022-12-18T07:57:41;30.67;;;22.30;;
28547;SDS011;15750;49.600;8.746;2022-12-18T08:00:24;35.83;;;24.37;;
28547;SDS011;15750;49.600;8.746;2022-12-18T08:02:53;35.80;;;23.10;;
28547;SDS011;15750;49.600;8.746;2022-12-18T08:05:23;34.43;;;24.37;;
28547;SDS011;15750;49.600;8.746;2022-12-18T08:07:52;42.23;;;24.50;;
28547;SDS011;15750;49.600;8.746;2022-12-18T08:10:21;38.53;;;25.03;;
28547;SDS011;15750;49.600;8.746;2022-12-18T08:12:50;39.33;;;25.57;;
28547;SDS011;15750;49.600;8.746;2022-12-18T08:15:19;42.00;;;27.53;;
28547;SDS011;15750;49.600;8.746;2022-12-18T08:17:48;39.00;;;24.47;;
28547;SDS011;15750;49.600;8.746;2022-12-18T08:20:17;37.03;;;24.20;;
28547;SDS011;15750;49.600;8.746;2022-12-18T08:22:47;35.80;;;23.97;;
28547;SDS011;15750;49.600;8.746;2022-12-18T08:25:15;37.43;;;26.20;;
28547;SDS011;15750;49.600;8.746;2022-12-18T08:27:44;33.93;;;21.80;;
28547;SDS011;15750;49.600;8.746;2022-12-18T08:30:13;36.23;;;23.50;;
28547;SDS011;15750;49.600;8.746;2022-12-18T08:32:42;36.57;;;23.77;;
28547;SDS011;15750;49.600;8.746;2022-12-18T08:35:11;34.53;;;23.27;;
28547;SDS011;15750;49.600;8.746;2022-12-18T08:37:44;33.47;;;22.73;;
28547;SDS011;15750;49.600;8.746;2022-12-18T08:40:14;38.10;;;24.27;;
28547;SDS011;15750;49.600;8.746;2022-12-18T08:42:43;42.20;;;25.80;;
28547;SDS011;15750;49.600;8.746;2022-12-18T08:45:29;42.03;;;25.00;;
28547;SDS011;15750;49.600;8.746;2022-12-18T08:48:01;36.63;;;24.70;;
28547;SDS011;15750;49.600;8.746;2022-12-18T08:50:30;34.63;;;22.13;;
28547;SDS011;15750;49.600;8.746;2022-12-18T08:52:59;44.07;;;27.23;;
28547;SDS011;15750;49.600;8.746;2022-12-18T08:55:30;39.30;;;25.13;;
28547;SDS011;15750;49.600;8.746;2022-12-18T08:57:58;36.57;;;23.63;;
28547;SDS011;15750;49.600;8.746;2022-12-18T09:00:27;37.53;;;25.73;;
28547;SDS011;15750;49.600;8.746;2022-12-18T09:02:56;41.23;;;26.07;;
28547;SDS011;15750;49.600;8.746;2022-12-18T09:05:25;42.50;;;28.07;;
28547;SDS011;15750;49.600;8.746;2022-12-18T09:07:54;42.00;;;27.90;;
28547;SDS011;15750;49.600;8.746;2022-12-18T09:10:23;36.70;;;26.63;;
28547;SDS011;15750;49.600;8.746;2022-12-18T09:12:53;39.53;;;25.13;;
28547;SDS011;15750;49.600;8.746;2022-12-18T09:15:22;40.37;;;25.37;;
28547;SDS011;15750;49.600;8.746;2022-12-18T09:17:51;37.37;;;24.77;;
28547;SDS011;15750;49.600;8.746;2022-12-18T09:20:20;39.33;;;24.77;;
28547;SDS011;15750;49.600;8.746;2022-12-18T09:22:52;38.30;;;23.07;;
28547;SDS011;15750;49.600;8.746;2022-12-18T09:25:21;34.00;;;20.93;;
28547;SDS011;15750;49.600;8.746;2022-12-18T09:27:50;26.47;;;16.63;;
28547;SDS011;15750;49.600;8.746;2022-12-18T09:30:20;33.47;;;16.57;;
28547;SDS011;15750;49.600;8.746;2022-12-18T09:32:49;22.50;;;15.60;;
28547;SDS011;15750;49.600;8.746;2022-12-18T09:35:18;26.13;;;14.93;;
28547;SDS011;15750;49.600;8.746;2022-12-18T09:37:47;24.57;;;15.77;;
28547;SDS011;15750;49.600;8.746;2022-12-18T09:40:16;24.67;;;16.30;;
28547;SDS011;15750;49.600;8.746;2022-12-18T09:42:51;21.80;;;13.43;;
28547;SDS011;15750;49.600;8.746;2022-12-18T09:45:27;20.03;;;13.53;;
28547;SDS011;15750;49.600;8.746;2022-12-18T09:48:04;21.57;;;13.63;;
28547;SDS011;15750;49.600;8.746;2022-12-18T09:50:35;23.77;;;15.57;;
28547;SDS011;15750;49.600;8.746;2022-12-18T09:53:10;22.60;;;14.00;;
28547;SDS011;15750;49.600;8.746;2022-12-18T09:55:45;25.30;;;13.67;;
28547;SDS011;15750;49.600;8.746;2022-12-18T09:58:20;20.83;;;13.03;;
28547;SDS011;15750;49.600;8.746;2022-12-18T10:00:56;22.23;;;13.53;;
28547;SDS011;15750;49.600;8.746;2022-12-18T10:03:24;23.07;;;14.33;;
28547;SDS011;15750;49.600;8.746;2022-12-18T10:05:56;22.63;;;13.00;;
28547;SDS011;15750;49.600;8.746;2022-12-18T10:08:34;22.07;;;13.57;;
28547;SDS011;15750;49.600;8.746;2022-12-18T10:11:15;21.60;;;14.13;;
28547;SDS011;15750;49.600;8.746;2022-12-18T10:14:09;21.13;;;13.57;;
28547;SDS011;15750;49.600;8.746;2022-12-18T10:16:48;22.50;;;13.90;;
28547;SDS011;15750;49.600;8.746;2022-12-18T10:19:31;22.47;;;13.87;;
28547;SDS011;15750;49.600;8.746;2022-12-18T10:22:19;27.73;;;14.93;;
28547;SDS011;15750;49.600;8.746;2022-12-18T10:25:02;20.43;;;12.13;;
28547;SDS011;15750;49.600;8.746;2022-12-18T10:27:51;22.80;;;13.23;;
28547;SDS011;15750;49.600;8.746;2022-12-18T10:30:25;23.10;;;13.37;;
28547;SDS011;15750;49.600;8.746;2022-12-18T10:32:54;20.97;;;13.30;;
28547;SDS011;15750;49.600;8.746;2022-12-18T10:35:28;22.30;;;13.53;;
28547;SDS011;15750;49.600;8.746;2022-12-18T10:38:03;22.63;;;14.03;;
28547;SDS011;15750;49.600;8.746;2022-12-18T10:40:47;26.40;;;14.53;;
28547;SDS011;15750;49.600;8.746;2022-12-18T10:43:22;21.60;;;13.80;;
28547;SDS011;15750;49.600;8.746;2022-12-18T10:46:03;22.00;;;14.03;;
28547;SDS011;15750;49.600;8.746;2022-12-18T10:48:52;20.63;;;13.37;;
28547;SDS011;15750;49.600;8.746;2022-12-18T10:51:23;22.60;;;14.10;;
28547;SDS011;15750;49.600;8.746;2022-12-18T10:53:57;25.53;;;15.67;;
28547;SDS011;15750;49.600;8.746;2022-12-18T10:56:33;24.47;;;15.17;;
28547;SDS011;15750;49.600;8.746;2022-12-18T10:59:05;24.17;;;14.10;;
28547;SDS011;15750;49.600;8.746;2022-12-18T11:01:46;21.57;;;13.57;;
28547;SDS011;15750;49.600;8.746;2022-12-18T11:04:19;23.13;;;13.40;;
28547;SDS011;15750;49.600;8.746;2022-12-18T11:06:54;21.67;;;13.80;;
28547;SDS011;15750;49.600;8.746;2022-12-18T11:09:26;23.83;;;13.67;;
28547;SDS011;15750;49.600;8.746;2022-12-18T11:11:58;24.13;;;14.60;;
28547;SDS011;15750;49.600;8.746;2022-12-18T11:14:29;21.07;;;13.63;;
28547;SDS011;15750;49.600;8.746;2022-12-18T11:17:18;22.40;;;13.87;;
28547;SDS011;15750;49.600;8.746;2022-12-18T11:19:52;25.60;;;13.93;;
28547;SDS011;15750;49.600;8.746;2022-12-18T11:22:23;21.83;;;13.50;;
28547;SDS011;15750;49.600;8.746;2022-12-18T11:24:55;23.53;;;14.93;;
28547;SDS011;15750;49.600;8.746;2022-12-18T11:27:47;21.63;;;13.90;;
28547;SDS011;15750;49.600;8.746;2022-12-18T11:30:21;23.37;;;14.00;;
28547;SDS011;15750;49.600;8.746;2022-12-18T11:32:54;22.80;;;13.83;;
28547;SDS011;15750;49.600;8.746;2022-12-18T11:35:32;21.87;;;13.83;;
28547;SDS011;15750;49.600;8.746;2022-12-18T11:38:17;21.97;;;13.57;;
28547;SDS011;15750;49.600;8.746;2022-12-18T11:40:52;20.60;;;13.23;;
28547;SDS011;15750;49.600;8.746;2022-12-18T11:43:26;24.07;;;14.47;;
28547;SDS011;15750;49.600;8.746;2022-12-18T11:46:01;25.00;;;15.23;;
28547;SDS011;15750;49.600;8.746;2022-12-18T11:48:36;26.20;;;15.13;;
28547;SDS011;15750;49.600;8.746;2022-12-18T11:51:13;20.70;;;13.10;;
28547;SDS011;15750;49.600;8.746;2022-12-18T11:53:52;20.20;;;13.43;;
28547;SDS011;15750;49.600;8.746;2022-12-18T11:56:26;25.13;;;15.30;;
28547;SDS011;15750;49.600;8.746;2022-12-18T11:59:13;24.33;;;13.77;;
28547;SDS011;15750;49.600;8.746;2022-12-18T12:01:53;25.73;;;15.53;;
28547;SDS011;15750;49.600;8.746;2022-12-18T12:04:34;27.63;;;15.80;;
28547;SDS011;15750;49.600;8.746;2022-12-18T12:07:35;26.43;;;15.80;;
28547;SDS011;15750;49.600;8.746;2022-12-18T12:10:16;29.67;;;15.67;;
28547;SDS011;15750;49.600;8.746;2022-12-18T12:13:03;22.77;;;14.57;;
28547;SDS011;15750;49.600;8.746;2022-12-18T12:15:44;23.17;;;14.10;;
28547;SDS011;15750;49.600;8.746;2022-12-18T12:18:28;23.07;;;14.27;;
28547;SDS011;15750;49.600;8.746;2022-12-18T12:21:08;23.43;;;15.00;;
28547;SDS011;15750;49.600;8.746;2022-12-18T12:23:43;24.77;;;14.70;;
28547;SDS011;15750;49.600;8.746;2022-12-18T12:26:19;27.13;;;16.33;;
28547;SDS011;15750;49.600;8.746;2022-12-18T12:29:01;23.30;;;14.90;;
28547;SDS011;15750;49.600;8.746;2022-12-18T12:31:50;22.27;;;14.97;;
28547;SDS011;15750;49.600;8.746;2022-12-18T12:34:34;23.17;;;15.70;;
28547;SDS011;15750;49.600;8.746;2022-12-18T12:37:18;23.33;;;14.83;;
28547;SDS011;15750;49.600;8.746;2022-12-18T12:39:53;23.40;;;14.40;;
28547;SDS011;15750;49.600;8.746;2022-12-18T12:42:34;21.63;;;14.47;;
28547;SDS011;15750;49.600;8.746;2022-12-18T12:45:27;22.57;;;13.60;;
28547;SDS011;15750;49.600;8.746;2022-12-18T12:48:02;22.87;;;14.43;;
28547;SDS011;15750;49.600;8.746;2022-12-18T12:50:37;25.47;;;15.33;;
28547;SDS011;15750;49.600;8.746;2022-12-18T12:53:21;22.60;;;14.47;;
28547;SDS011;15750;49.600;8.746;2022-12-18T12:55:54;25.90;;;15.80;;
28547;SDS011;15750;49.600;8.746;2022-12-18T12:58:27;24.80;;;14.57;;
28547;SDS011;15750;49.600;8.746;2022-12-18T13:01:09;31.17;;;20.53;;
28547;SDS011;15750;49.600;8.746;2022-12-18T13:03:52;23.50;;;15.13;;
28547;SDS011;15750;49.600;8.746;2022-12-18T13:06:34;37.30;;;22.90;;
28547;SDS011;15750;49.600;8.746;2022-12-18T13:09:13;33.40;;;18.30;;
28547;SDS011;15750;49.600;8.746;2022-12-18T13:11:43;25.07;;;14.93;;
28547;SDS011;15750;49.600;8.746;2022-12-18T13:14:31;24.83;;;14.23;;
28547;SDS011;15750;49.600;8.746;2022-12-18T13:20:04;21.77;;;13.00;;
28547;SDS011;15750;49.600;8.746;2022-12-18T13:22:38;25.90;;;14.17;;
28547;SDS011;15750;49.600;8.746;2022-12-18T13:28:13;21.37;;;14.23;;
28547;SDS011;15750;49.600;8.746;2022-12-18T13:30:45;25.67;;;14.63;;
28547;SDS011;15750;49.600;8.746;2022-12-18T13:36:36;22.40;;;14.17;;
28547;SDS011;15750;49.600;8.746;2022-12-18T13:39:09;20.93;;;14.20;;
28547;SDS011;15750;49.600;8.746;2022-12-18T13:45:41;23.60;;;14.00;;
28547;SDS011;15750;49.600;8.746;2022-12-18T13:48:21;24.63;;;14.83;;
28547;SDS011;15750;49.600;8.746;2022-12-18T13:50:53;21.63;;;13.90;;
28547;SDS011;15750;49.600;8.746;2022-12-18T13:53:28;21.77;;;15.03;;
28547;SDS011;15750;49.600;8.746;2022-12-18T13:56:03;22.17;;;13.80;;
28547;SDS011;15750;49.600;8.746;2022-12-18T13:58:34;22.73;;;14.17;;
28547;SDS011;15750;49.600;8.746;2022-12-18T14:01:03;20.50;;;13.63;;
28547;SDS011;15750;49.600;8.746;2022-12-18T14:03:33;23.27;;;14.60;;
28547;SDS011;15750;49.600;8.746;2022-12-18T14:06:03;20.97;;;13.13;;
28547;SDS011;15750;49.600;8.746;2022-12-18T14:08:37;21.87;;;14.30;;
28547;SDS011;15750;49.600;8.746;2022-12-18T14:11:17;27.00;;;13.73;;
28547;SDS011;15750;49.600;8.746;2022-12-18T14:13:53;22.73;;;13.10;;
28547;SDS011;15750;49.600;8.746;2022-12-18T14:16:22;22.30;;;13.97;;
28547;SDS011;15750;49.600;8.746;2022-12-18T14:18:52;24.37;;;13.47;;
28547;SDS011;15750;49.600;8.746;2022-12-18T14:21:35;22.33;;;13.50;;
28547;SDS011;15750;49.600;8.746;2022-12-18T14:24:06;25.97;;;15.07;;
28547;SDS011;15750;49.600;8.746;2022-12-18T14:26:45;24.97;;;14.70;;
28547;SDS011;15750;49.600;8.746;2022-12-18T14:29:25;23.37;;;14.13;;
28547;SDS011;15750;49.600;8.746;2022-12-18T14:32:05;25.10;;;14.30;;
28547;SDS011;15750;49.600;8.746;2022-12-18T14:34:45;21.83;;;13.87;;
28547;SDS011;15750;49.600;8.746;2022-12-18T14:37:16;22.77;;;14.17;;
28547;SDS011;15750;49.600;8.746;2022-12-18T14:39:52;22.13;;;13.13;;
28547;SDS011;15750;49.600;8.746;2022-12-18T14:42:32;20.90;;;13.67;;
28547;SDS011;15750;49.600;8.746;2022-12-18T14:48:11;23.27;;;14.17;;
28547;SDS011;15750;49.600;8.746;2022-12-18T14:50:56;23.03;;;13.87;;
28547;SDS011;15750;49.600;8.746;2022-12-18T14:53:35;21.40;;;13.30;;
28547;SDS011;15750;49.600;8.746;2022-12-18T14:56:13;24.17;;;14.50;;
28547;SDS011;15750;49.600;8.746;2022-12-18T14:58:45;23.03;;;12.70;;
28547;SDS011;15750;49.600;8.746;2022-12-18T15:01:22;22.47;;;13.90;;
28547;SDS011;15750;49.600;8.746;2022-12-18T15:03:54;24.30;;;14.80;;
28547;SDS011;15750;49.600;8.746;2022-12-18T15:06:26;26.00;;;14.10;;
28547;SDS011;15750;49.600;8.746;2022-12-18T15:08:59;21.10;;;13.73;;
28547;SDS011;15750;49.600;8.746;2022-12-18T15:11:34;26.23;;;15.33;;
28547;SDS011;15750;49.600;8.746;2022-12-18T15:14:22;21.20;;;13.37;;
28547;SDS011;15750;49.600;8.746;2022-12-18T15:17:14;22.43;;;13.93;;
28547;SDS011;15750;49.600;8.746;2022-12-18T15:19:46;19.73;;;12.73;;
28547;SDS011;15750;49.600;8.746;2022-12-18T15:22:20;20.73;;;13.33;;
28547;SDS011;15750;49.600;8.746;2022-12-18T15:24:54;25.57;;;14.27;;
28547;SDS011;15750;49.600;8.746;2022-12-18T15:27:25;22.63;;;14.07;;
28547;SDS011;15750;49.600;8.746;2022-12-18T15:30:17;24.90;;;14.77;;
28547;SDS011;15750;49.600;8.746;2022-12-18T15:32:52;20.20;;;13.20;;
28547;SDS011;15750;49.600;8.746;2022-12-18T15:35:55;24.60;;;14.27;;
28547;SDS011;15750;49.600;8.746;2022-12-18T15:38:25;22.60;;;13.60;;
28547;SDS011;15750;49.600;8.746;2022-12-18T15:40:55;25.27;;;14.40;;
28547;SDS011;15750;49.600;8.746;2022-12-18T15:43:24;22.50;;;14.43;;
28547;SDS011;15750;49.600;8.746;2022-12-18T15:46:02;23.80;;;14.17;;
28547;SDS011;15750;49.600;8.746;2022-12-18T15:48:35;22.10;;;13.77;;
28547;SDS011;15750;49.600;8.746;2022-12-18T15:51:09;22.33;;;13.77;;
28547;SDS011;15750;49.600;8.746;2022-12-18T15:53:43;24.93;;;14.63;;
28547;SDS011;15750;49.600;8.746;2022-12-18T15:56:12;26.80;;;14.73;;
28547;SDS011;15750;49.600;8.746;2022-12-18T15:59:01;25.03;;;14.57;;
28547;SDS011;15750;49.600;8.746;2022-12-18T16:01:32;21.67;;;14.20;;